Snapper Creek, Florida
Current Conditions -  °F | °C
As of 10:53 AM on Sunday 23 Nov 2014 (Local Time) from KTMB Reporting Station
Broken Clouds Broken Clouds  
Wind Chill: 82°   Ceiling: 2000
Heat Index: 87°   Visibility: 10mi
Dew Point: 73°   Wind: 16mph
Humidity: 74%   Direction: 140°SE
Pressure: 30.03"   Gusts: 22mph
Location:  25.6574°N, 80.359°W
Report Text: KTMB 231553Z 14014G19KT 10SM BKN020 BKN027 28/23 A3003 RMK AO2 SLP167 T02780228
Loading
Personal Weather Stations






























Interactive Weather Map New forecast layout! Learn more

10-Day Weather Forecast

Advertisements
Track Severe Weather on mobile